sensor_id;sensor_type;location;lat;lon;timestamp;P1;durP1;ratioP1;P2;durP2;ratioP2
75417;SDS011;63997;52.112;5.420;2023-03-01T00:02:26;7.32;;;4.90;;
75417;SDS011;63997;52.112;5.420;2023-03-01T00:04:52;8.77;;;4.70;;
75417;SDS011;63997;52.112;5.420;2023-03-01T00:07:18;7.70;;;5.07;;
75417;SDS011;63997;52.112;5.420;2023-03-01T00:09:45;8.90;;;4.53;;
75417;SDS011;63997;52.112;5.420;2023-03-01T00:12:11;4.37;;;3.43;;
75417;SDS011;63997;52.112;5.420;2023-03-01T00:14:38;7.70;;;4.07;;
75417;SDS011;63997;52.112;5.420;2023-03-01T00:17:05;9.98;;;4.72;;
75417;SDS011;63997;52.112;5.420;2023-03-01T00:19:31;5.72;;;4.22;;
75417;SDS011;63997;52.112;5.420;2023-03-01T00:21:58;5.05;;;3.92;;
75417;SDS011;63997;52.112;5.420;2023-03-01T00:24:24;6.37;;;4.13;;
75417;SDS011;63997;52.112;5.420;2023-03-01T00:26:54;6.88;;;4.15;;
75417;SDS011;63997;52.112;5.420;2023-03-01T00:29:23;6.85;;;3.55;;
75417;SDS011;63997;52.112;5.420;2023-03-01T00:31:50;6.85;;;3.20;;
75417;SDS011;63997;52.112;5.420;2023-03-01T00:34:17;4.57;;;3.65;;
75417;SDS011;63997;52.112;5.420;2023-03-01T00:36:44;5.30;;;3.77;;
75417;SDS011;63997;52.112;5.420;2023-03-01T00:39:11;5.25;;;3.97;;
75417;SDS011;63997;52.112;5.420;2023-03-01T00:41:40;5.68;;;4.07;;
75417;SDS011;63997;52.112;5.420;2023-03-01T00:44:07;7.50;;;3.83;;
75417;SDS011;63997;52.112;5.420;2023-03-01T00:46:34;7.90;;;4.95;;
75417;SDS011;63997;52.112;5.420;2023-03-01T00:49:01;6.80;;;4.83;;
75417;SDS011;63997;52.112;5.420;2023-03-01T00:51:28;6.88;;;5.00;;
75417;SDS011;63997;52.112;5.420;2023-03-01T00:53:56;7.97;;;5.25;;
75417;SDS011;63997;52.112;5.420;2023-03-01T00:56:24;8.32;;;5.47;;
75417;SDS011;63997;52.112;5.420;2023-03-01T00:58:50;10.23;;;5.20;;
75417;SDS011;63997;52.112;5.420;2023-03-01T01:01:21;7.53;;;5.33;;
75417;SDS011;63997;52.112;5.420;2023-03-01T01:03:53;12.07;;;6.45;;
75417;SDS011;63997;52.112;5.420;2023-03-01T01:06:29;10.60;;;6.82;;
75417;SDS011;63997;52.112;5.420;2023-03-01T01:08:58;13.23;;;6.70;;
75417;SDS011;63997;52.112;5.420;2023-03-01T01:11:26;9.73;;;5.50;;
75417;SDS011;63997;52.112;5.420;2023-03-01T01:13:54;8.93;;;5.37;;
75417;SDS011;63997;52.112;5.420;2023-03-01T01:16:22;10.30;;;5.68;;
75417;SDS011;63997;52.112;5.420;2023-03-01T01:18:50;9.68;;;5.13;;
75417;SDS011;63997;52.112;5.420;2023-03-01T01:21:18;8.48;;;5.30;;
75417;SDS011;63997;52.112;5.420;2023-03-01T01:23:46;6.15;;;4.03;;
75417;SDS011;63997;52.112;5.420;2023-03-01T01:26:15;7.83;;;4.93;;
75417;SDS011;63997;52.112;5.420;2023-03-01T01:28:51;5.30;;;3.83;;
75417;SDS011;63997;52.112;5.420;2023-03-01T01:31:19;9.90;;;4.18;;
75417;SDS011;63997;52.112;5.420;2023-03-01T01:33:50;7.45;;;5.40;;
75417;SDS011;63997;52.112;5.420;2023-03-01T01:36:17;6.45;;;4.45;;
75417;SDS011;63997;52.112;5.420;2023-03-01T01:38:43;7.80;;;5.03;;
75417;SDS011;63997;52.112;5.420;2023-03-01T01:41:10;10.23;;;5.32;;
75417;SDS011;63997;52.112;5.420;2023-03-01T01:43:39;6.63;;;4.50;;
75417;SDS011;63997;52.112;5.420;2023-03-01T01:49:00;7.38;;;4.63;;
75417;SDS011;63997;52.112;5.420;2023-03-01T01:51:35;8.77;;;4.70;;
75417;SDS011;63997;52.112;5.420;2023-03-01T01:54:16;7.28;;;5.03;;
75417;SDS011;63997;52.112;5.420;2023-03-01T01:56:48;13.05;;;4.90;;
75417;SDS011;63997;52.112;5.420;2023-03-01T01:59:20;9.38;;;4.80;;
75417;SDS011;63997;52.112;5.420;2023-03-01T02:01:51;8.43;;;4.60;;
75417;SDS011;63997;52.112;5.420;2023-03-01T02:04:18;10.63;;;4.90;;
75417;SDS011;63997;52.112;5.420;2023-03-01T02:06:49;8.93;;;4.68;;
75417;SDS011;63997;52.112;5.420;2023-03-01T02:09:22;6.78;;;5.07;;
75417;SDS011;63997;52.112;5.420;2023-03-01T02:11:50;10.20;;;5.10;;
75417;SDS011;63997;52.112;5.420;2023-03-01T02:14:17;7.38;;;5.07;;
75417;SDS011;63997;52.112;5.420;2023-03-01T02:16:43;5.63;;;4.37;;
75417;SDS011;63997;52.112;5.420;2023-03-01T02:19:12;6.70;;;5.13;;
75417;SDS011;63997;52.112;5.420;2023-03-01T02:21:57;6.80;;;4.25;;
75417;SDS011;63997;52.112;5.420;2023-03-01T02:24:40;5.55;;;4.15;;
75417;SDS011;63997;52.112;5.420;2023-03-01T02:27:14;7.68;;;5.05;;
75417;SDS011;63997;52.112;5.420;2023-03-01T02:29:43;8.20;;;4.90;;
75417;SDS011;63997;52.112;5.420;2023-03-01T02:32:10;12.75;;;5.35;;
75417;SDS011;63997;52.112;5.420;2023-03-01T02:34:38;6.68;;;4.63;;
75417;SDS011;63997;52.112;5.420;2023-03-01T02:37:07;6.57;;;3.95;;
75417;SDS011;63997;52.112;5.420;2023-03-01T02:39:42;4.90;;;3.63;;
75417;SDS011;63997;52.112;5.420;2023-03-01T02:42:14;5.50;;;4.47;;
75417;SDS011;63997;52.112;5.420;2023-03-01T02:44:46;8.43;;;4.45;;
75417;SDS011;63997;52.112;5.420;2023-03-01T02:47:12;5.65;;;4.13;;
75417;SDS011;63997;52.112;5.420;2023-03-01T02:49:39;8.77;;;5.30;;
75417;SDS011;63997;52.112;5.420;2023-03-01T02:54:34;7.63;;;4.43;;
75417;SDS011;63997;52.112;5.420;2023-03-01T02:57:06;8.15;;;4.88;;
75417;SDS011;63997;52.112;5.420;2023-03-01T02:59:34;8.93;;;4.85;;
75417;SDS011;63997;52.112;5.420;2023-03-01T03:02:06;8.73;;;4.82;;
75417;SDS011;63997;52.112;5.420;2023-03-01T03:04:33;10.70;;;5.47;;
75417;SDS011;63997;52.112;5.420;2023-03-01T03:07:00;10.47;;;5.67;;
75417;SDS011;63997;52.112;5.420;2023-03-01T03:09:26;12.52;;;5.85;;
75417;SDS011;63997;52.112;5.420;2023-03-01T03:11:52;11.05;;;5.40;;
75417;SDS011;63997;52.112;5.420;2023-03-01T03:14:19;7.43;;;4.97;;
75417;SDS011;63997;52.112;5.420;2023-03-01T03:16:46;7.93;;;4.85;;
75417;SDS011;63997;52.112;5.420;2023-03-01T03:19:16;9.40;;;4.90;;
75417;SDS011;63997;52.112;5.420;2023-03-01T03:21:44;10.77;;;5.57;;
75417;SDS011;63997;52.112;5.420;2023-03-01T03:24:11;12.82;;;5.85;;
75417;SDS011;63997;52.112;5.420;2023-03-01T03:26:37;12.52;;;5.65;;
75417;SDS011;63997;52.112;5.420;2023-03-01T03:29:03;6.00;;;3.88;;
75417;SDS011;63997;52.112;5.420;2023-03-01T03:31:30;5.97;;;4.20;;
75417;SDS011;63997;52.112;5.420;2023-03-01T03:33:56;6.97;;;4.22;;
75417;SDS011;63997;52.112;5.420;2023-03-01T03:36:24;6.20;;;3.95;;
75417;SDS011;63997;52.112;5.420;2023-03-01T03:38:51;8.55;;;4.15;;
75417;SDS011;63997;52.112;5.420;2023-03-01T03:41:17;9.02;;;4.47;;
75417;SDS011;63997;52.112;5.420;2023-03-01T03:43:44;6.83;;;4.17;;
75417;SDS011;63997;52.112;5.420;2023-03-01T03:46:11;6.65;;;3.85;;
75417;SDS011;63997;52.112;5.420;2023-03-01T03:48:39;5.13;;;4.38;;
75417;SDS011;63997;52.112;5.420;2023-03-01T03:51:10;7.32;;;4.43;;
75417;SDS011;63997;52.112;5.420;2023-03-01T03:53:37;10.60;;;4.72;;
75417;SDS011;63997;52.112;5.420;2023-03-01T03:56:04;16.27;;;4.80;;
75417;SDS011;63997;52.112;5.420;2023-03-01T03:58:31;7.97;;;4.47;;
75417;SDS011;63997;52.112;5.420;2023-03-01T04:00:58;8.43;;;4.53;;
75417;SDS011;63997;52.112;5.420;2023-03-01T04:03:27;5.63;;;3.92;;
75417;SDS011;63997;52.112;5.420;2023-03-01T04:05:56;12.18;;;5.20;;
75417;SDS011;63997;52.112;5.420;2023-03-01T04:08:23;7.67;;;4.10;;
75417;SDS011;63997;52.112;5.420;2023-03-01T04:10:51;8.20;;;4.65;;
75417;SDS011;63997;52.112;5.420;2023-03-01T04:13:19;6.18;;;4.60;;
75417;SDS011;63997;52.112;5.420;2023-03-01T04:15:53;7.80;;;4.70;;
75417;SDS011;63997;52.112;5.420;2023-03-01T04:18:21;5.03;;;3.80;;
75417;SDS011;63997;52.112;5.420;2023-03-01T04:20:49;6.87;;;4.40;;
75417;SDS011;63997;52.112;5.420;2023-03-01T04:23:19;13.10;;;4.63;;
75417;SDS011;63997;52.112;5.420;2023-03-01T04:25:50;7.18;;;4.97;;
75417;SDS011;63997;52.112;5.420;2023-03-01T04:28:22;7.07;;;4.53;;
75417;SDS011;63997;52.112;5.420;2023-03-01T04:30:53;6.78;;;4.57;;
75417;SDS011;63997;52.112;5.420;2023-03-01T04:33:21;6.87;;;4.70;;
75417;SDS011;63997;52.112;5.420;2023-03-01T04:35:48;7.97;;;4.22;;
75417;SDS011;63997;52.112;5.420;2023-03-01T04:38:19;5.80;;;4.40;;
75417;SDS011;63997;52.112;5.420;2023-03-01T04:40:45;8.43;;;5.00;;
75417;SDS011;63997;52.112;5.420;2023-03-01T04:43:12;7.93;;;5.07;;
75417;SDS011;63997;52.112;5.420;2023-03-01T04:45:42;7.03;;;5.07;;
75417;SDS011;63997;52.112;5.420;2023-03-01T04:48:09;7.82;;;4.63;;
75417;SDS011;63997;52.112;5.420;2023-03-01T04:50:35;8.25;;;5.55;;
75417;SDS011;63997;52.112;5.420;2023-03-01T04:53:02;6.25;;;4.68;;
75417;SDS011;63997;52.112;5.420;2023-03-01T04:55:28;7.18;;;4.70;;
75417;SDS011;63997;52.112;5.420;2023-03-01T04:57:55;7.40;;;5.03;;
75417;SDS011;63997;52.112;5.420;2023-03-01T05:00:22;9.70;;;4.88;;
75417;SDS011;63997;52.112;5.420;2023-03-01T05:02:59;8.70;;;4.65;;
75417;SDS011;63997;52.112;5.420;2023-03-01T05:05:27;6.40;;;4.80;;
75417;SDS011;63997;52.112;5.420;2023-03-01T05:07:57;7.75;;;4.50;;
75417;SDS011;63997;52.112;5.420;2023-03-01T05:10:26;7.00;;;4.73;;
75417;SDS011;63997;52.112;5.420;2023-03-01T05:12:55;8.63;;;4.72;;
75417;SDS011;63997;52.112;5.420;2023-03-01T05:15:23;7.22;;;4.72;;
75417;SDS011;63997;52.112;5.420;2023-03-01T05:17:52;8.10;;;4.50;;
75417;SDS011;63997;52.112;5.420;2023-03-01T05:20:20;7.65;;;4.38;;
75417;SDS011;63997;52.112;5.420;2023-03-01T05:22:51;8.53;;;5.00;;
75417;SDS011;63997;52.112;5.420;2023-03-01T05:25:18;13.40;;;5.90;;
75417;SDS011;63997;52.112;5.420;2023-03-01T05:27:44;7.13;;;5.30;;
75417;SDS011;63997;52.112;5.420;2023-03-01T05:30:11;8.02;;;5.20;;
75417;SDS011;63997;52.112;5.420;2023-03-01T05:32:49;8.55;;;5.82;;
75417;SDS011;63997;52.112;5.420;2023-03-01T05:35:21;6.13;;;4.67;;
75417;SDS011;63997;52.112;5.420;2023-03-01T05:37:49;7.97;;;6.00;;
75417;SDS011;63997;52.112;5.420;2023-03-01T05:40:17;10.30;;;4.90;;
75417;SDS011;63997;52.112;5.420;2023-03-01T05:42:49;9.82;;;4.95;;
75417;SDS011;63997;52.112;5.420;2023-03-01T05:45:20;9.00;;;5.63;;
75417;SDS011;63997;52.112;5.420;2023-03-01T05:47:48;12.67;;;6.17;;
75417;SDS011;63997;52.112;5.420;2023-03-01T05:50:16;14.15;;;6.10;;
75417;SDS011;63997;52.112;5.420;2023-03-01T05:52:48;10.38;;;5.80;;
75417;SDS011;63997;52.112;5.420;2023-03-01T05:55:22;8.70;;;4.85;;
75417;SDS011;63997;52.112;5.420;2023-03-01T05:57:49;8.90;;;5.25;;
75417;SDS011;63997;52.112;5.420;2023-03-01T06:00:17;7.13;;;5.57;;
75417;SDS011;63997;52.112;5.420;2023-03-01T06:02:45;9.40;;;5.85;;
75417;SDS011;63997;52.112;5.420;2023-03-01T06:05:12;9.02;;;5.35;;
75417;SDS011;63997;52.112;5.420;2023-03-01T06:07:39;9.05;;;5.57;;
75417;SDS011;63997;52.112;5.420;2023-03-01T06:10:07;12.82;;;6.03;;
75417;SDS011;63997;52.112;5.420;2023-03-01T06:12:35;7.97;;;5.13;;
75417;SDS011;63997;52.112;5.420;2023-03-01T06:15:02;8.40;;;5.32;;
75417;SDS011;63997;52.112;5.420;2023-03-01T06:17:31;12.18;;;5.97;;
75417;SDS011;63997;52.112;5.420;2023-03-01T06:19:58;8.95;;;5.95;;
75417;SDS011;63997;52.112;5.420;2023-03-01T06:22:25;11.30;;;5.47;;
75417;SDS011;63997;52.112;5.420;2023-03-01T06:24:51;9.43;;;5.90;;
75417;SDS011;63997;52.112;5.420;2023-03-01T06:27:17;9.23;;;6.50;;
75417;SDS011;63997;52.112;5.420;2023-03-01T06:29:44;8.35;;;5.65;;
75417;SDS011;63997;52.112;5.420;2023-03-01T06:32:10;10.55;;;5.68;;
75417;SDS011;63997;52.112;5.420;2023-03-01T06:34:37;10.48;;;6.60;;
75417;SDS011;63997;52.112;5.420;2023-03-01T06:37:03;12.00;;;6.43;;
75417;SDS011;63997;52.112;5.420;2023-03-01T06:39:31;9.60;;;5.45;;
75417;SDS011;63997;52.112;5.420;2023-03-01T06:41:58;8.55;;;5.47;;
75417;SDS011;63997;52.112;5.420;2023-03-01T06:44:25;10.45;;;6.00;;
75417;SDS011;63997;52.112;5.420;2023-03-01T06:46:52;12.75;;;7.25;;
75417;SDS011;63997;52.112;5.420;2023-03-01T06:49:18;12.97;;;6.27;;
75417;SDS011;63997;52.112;5.420;2023-03-01T06:51:45;11.23;;;7.10;;
75417;SDS011;63997;52.112;5.420;2023-03-01T06:54:12;9.02;;;6.13;;
75417;SDS011;63997;52.112;5.420;2023-03-01T06:56:38;11.20;;;6.40;;
75417;SDS011;63997;52.112;5.420;2023-03-01T06:59:05;11.52;;;7.32;;
75417;SDS011;63997;52.112;5.420;2023-03-01T07:01:32;7.50;;;5.97;;
75417;SDS011;63997;52.112;5.420;2023-03-01T07:03:58;10.60;;;6.20;;
75417;SDS011;63997;52.112;5.420;2023-03-01T07:06:24;13.43;;;7.20;;
75417;SDS011;63997;52.112;5.420;2023-03-01T07:08:51;9.65;;;7.30;;
75417;SDS011;63997;52.112;5.420;2023-03-01T07:11:17;10.00;;;6.55;;
75417;SDS011;63997;52.112;5.420;2023-03-01T07:13:43;14.07;;;7.33;;
75417;SDS011;63997;52.112;5.420;2023-03-01T07:16:10;14.82;;;7.65;;
75417;SDS011;63997;52.112;5.420;2023-03-01T07:18:36;12.88;;;7.95;;
75417;SDS011;63997;52.112;5.420;2023-03-01T07:21:06;18.08;;;7.10;;
75417;SDS011;63997;52.112;5.420;2023-03-01T07:23:34;14.07;;;7.90;;
75417;SDS011;63997;52.112;5.420;2023-03-01T07:26:01;10.57;;;7.20;;
75417;SDS011;63997;52.112;5.420;2023-03-01T07:28:27;11.10;;;7.88;;
75417;SDS011;63997;52.112;5.420;2023-03-01T07:30:54;10.85;;;7.00;;
75417;SDS011;63997;52.112;5.420;2023-03-01T07:33:21;12.52;;;7.28;;
75417;SDS011;63997;52.112;5.420;2023-03-01T07:35:47;10.40;;;7.28;;
75417;SDS011;63997;52.112;5.420;2023-03-01T07:38:14;12.47;;;7.40;;
75417;SDS011;63997;52.112;5.420;2023-03-01T07:40:40;10.00;;;6.85;;
75417;SDS011;63997;52.112;5.420;2023-03-01T07:43:06;10.82;;;7.32;;
75417;SDS011;63997;52.112;5.420;2023-03-01T07:45:33;13.15;;;7.40;;
75417;SDS011;63997;52.112;5.420;2023-03-01T07:47:59;9.20;;;7.65;;
75417;SDS011;63997;52.112;5.420;2023-03-01T07:50:26;14.30;;;7.40;;
75417;SDS011;63997;52.112;5.420;2023-03-01T07:52:52;11.70;;;8.10;;
75417;SDS011;63997;52.112;5.420;2023-03-01T07:55:19;14.70;;;8.40;;
75417;SDS011;63997;52.112;5.420;2023-03-01T07:57:46;15.05;;;7.97;;
75417;SDS011;63997;52.112;5.420;2023-03-01T08:00:12;13.60;;;8.65;;
75417;SDS011;63997;52.112;5.420;2023-03-01T08:02:39;8.90;;;6.90;;
75417;SDS011;63997;52.112;5.420;2023-03-01T08:05:08;13.02;;;7.43;;
75417;SDS011;63997;52.112;5.420;2023-03-01T08:07:36;15.95;;;7.47;;
75417;SDS011;63997;52.112;5.420;2023-03-01T08:10:02;16.02;;;7.70;;
75417;SDS011;63997;52.112;5.420;2023-03-01T08:12:29;11.23;;;7.45;;
75417;SDS011;63997;52.112;5.420;2023-03-01T08:14:55;12.10;;;7.53;;
75417;SDS011;63997;52.112;5.420;2023-03-01T08:17:22;11.20;;;6.90;;
75417;SDS011;63997;52.112;5.420;2023-03-01T08:19:49;13.57;;;7.88;;
75417;SDS011;63997;52.112;5.420;2023-03-01T08:22:15;8.05;;;6.15;;
75417;SDS011;63997;52.112;5.420;2023-03-01T08:24:42;10.77;;;6.93;;
75417;SDS011;63997;52.112;5.420;2023-03-01T08:27:09;7.23;;;5.60;;
75417;SDS011;63997;52.112;5.420;2023-03-01T08:29:36;8.27;;;6.57;;
75417;SDS011;63997;52.112;5.420;2023-03-01T08:32:02;8.82;;;5.63;;
75417;SDS011;63997;52.112;5.420;2023-03-01T08:34:29;11.02;;;5.10;;
75417;SDS011;63997;52.112;5.420;2023-03-01T08:36:57;7.68;;;5.78;;
75417;SDS011;63997;52.112;5.420;2023-03-01T08:39:23;8.63;;;5.33;;
75417;SDS011;63997;52.112;5.420;2023-03-01T08:41:50;9.48;;;7.05;;
75417;SDS011;63997;52.112;5.420;2023-03-01T08:44:16;8.57;;;6.32;;
75417;SDS011;63997;52.112;5.420;2023-03-01T08:46:43;7.88;;;5.57;;
75417;SDS011;63997;52.112;5.420;2023-03-01T08:49:11;14.63;;;6.30;;
75417;SDS011;63997;52.112;5.420;2023-03-01T08:51:39;9.47;;;6.20;;
75417;SDS011;63997;52.112;5.420;2023-03-01T08:54:09;7.88;;;5.53;;
75417;SDS011;63997;52.112;5.420;2023-03-01T08:56:37;7.28;;;5.32;;
75417;SDS011;63997;52.112;5.420;2023-03-01T08:59:04;7.18;;;5.40;;
75417;SDS011;63997;52.112;5.420;2023-03-01T09:01:31;8.82;;;5.93;;
75417;SDS011;63997;52.112;5.420;2023-03-01T09:03:57;7.37;;;5.03;;
75417;SDS011;63997;52.112;5.420;2023-03-01T09:06:23;8.45;;;5.20;;
75417;SDS011;63997;52.112;5.420;2023-03-01T09:08:50;9.57;;;5.18;;
75417;SDS011;63997;52.112;5.420;2023-03-01T09:11:18;10.15;;;5.35;;
75417;SDS011;63997;52.112;5.420;2023-03-01T09:13:46;6.97;;;4.60;;
75417;SDS011;63997;52.112;5.420;2023-03-01T09:16:14;6.83;;;4.33;;
75417;SDS011;63997;52.112;5.420;2023-03-01T09:18:43;7.72;;;4.40;;
75417;SDS011;63997;52.112;5.420;2023-03-01T09:21:13;7.63;;;4.90;;
75417;SDS011;63997;52.112;5.420;2023-03-01T09:23:42;5.18;;;3.78;;
75417;SDS011;63997;52.112;5.420;2023-03-01T09:26:11;5.93;;;4.40;;
75417;SDS011;63997;52.112;5.420;2023-03-01T09:28:39;5.90;;;4.37;;
75417;SDS011;63997;52.112;5.420;2023-03-01T09:31:07;5.32;;;4.28;;
75417;SDS011;63997;52.112;5.420;2023-03-01T09:33:34;6.80;;;4.43;;
75417;SDS011;63997;52.112;5.420;2023-03-01T09:36:04;5.55;;;4.10;;
75417;SDS011;63997;52.112;5.420;2023-03-01T09:38:33;5.97;;;4.03;;
75417;SDS011;63997;52.112;5.420;2023-03-01T09:41:00;4.87;;;3.50;;
75417;SDS011;63997;52.112;5.420;2023-03-01T09:46:22;5.15;;;3.45;;
75417;SDS011;63997;52.112;5.420;2023-03-01T09:48:52;4.03;;;3.05;;
75417;SDS011;63997;52.112;5.420;2023-03-01T09:51:25;7.55;;;3.63;;
75417;SDS011;63997;52.112;5.420;2023-03-01T09:53:56;4.07;;;3.03;;
75417;SDS011;63997;52.112;5.420;2023-03-01T09:56:27;6.43;;;2.90;;
75417;SDS011;63997;52.112;5.420;2023-03-01T10:04:39;3.90;;;2.90;;
75417;SDS011;63997;52.112;5.420;2023-03-01T10:10:08;4.75;;;2.35;;
75417;SDS011;63997;52.112;5.420;2023-03-01T10:12:49;4.03;;;2.40;;
75417;SDS011;63997;52.112;5.420;2023-03-01T10:15:18;2.35;;;1.63;;
75417;SDS011;63997;52.112;5.420;2023-03-01T10:17:49;4.82;;;2.50;;
75417;SDS011;63997;52.112;5.420;2023-03-01T10:21:07;5.23;;;2.10;;
75417;SDS011;63997;52.112;5.420;2023-03-01T10:23:13;4.78;;;2.50;;
75417;SDS011;63997;52.112;5.420;2023-03-01T10:28:44;5.30;;;2.95;;
75417;SDS011;63997;52.112;5.420;2023-03-01T10:31:18;5.32;;;2.40;;
75417;SDS011;63997;52.112;5.420;2023-03-01T10:33:49;5.33;;;2.20;;
75417;SDS011;63997;52.112;5.420;2023-03-01T10:36:21;5.35;;;2.85;;
75417;SDS011;63997;52.112;5.420;2023-03-01T10:38:54;4.28;;;2.30;;
75417;SDS011;63997;52.112;5.420;2023-03-01T10:41:23;2.75;;;1.50;;
75417;SDS011;63997;52.112;5.420;2023-03-01T10:43:52;5.13;;;3.00;;
75417;SDS011;63997;52.112;5.420;2023-03-01T10:46:31;2.60;;;1.70;;
75417;SDS011;63997;52.112;5.420;2023-03-01T10:49:05;3.83;;;1.50;;
75417;SDS011;63997;52.112;5.420;2023-03-01T10:51:31;3.67;;;1.95;;
75417;SDS011;63997;52.112;5.420;2023-03-01T10:53:58;2.33;;;1.40;;
75417;SDS011;63997;52.112;5.420;2023-03-01T10:56:25;4.97;;;1.77;;
75417;SDS011;63997;52.112;5.420;2023-03-01T10:59:01;3.43;;;1.77;;
75417;SDS011;63997;52.112;5.420;2023-03-01T11:01:45;4.25;;;1.65;;
75417;SDS011;63997;52.112;5.420;2023-03-01T11:04:12;2.40;;;1.33;;
75417;SDS011;63997;52.112;5.420;2023-03-01T11:06:40;3.38;;;1.48;;
75417;SDS011;63997;52.112;5.420;2023-03-01T11:09:14;2.38;;;1.70;;
75417;SDS011;63997;52.112;5.420;2023-03-01T11:11:46;3.63;;;1.40;;
75417;SDS011;63997;52.112;5.420;2023-03-01T11:14:20;2.50;;;1.60;;
75417;SDS011;63997;52.112;5.420;2023-03-01T11:22:49;3.83;;;1.45;;
75417;SDS011;63997;52.112;5.420;2023-03-01T11:25:20;3.90;;;1.47;;
75417;SDS011;63997;52.112;5.420;2023-03-01T11:27:52;3.22;;;1.60;;
75417;SDS011;63997;52.112;5.420;2023-03-01T11:30:24;3.08;;;1.60;;
75417;SDS011;63997;52.112;5.420;2023-03-01T11:33:01;2.97;;;1.23;;
75417;SDS011;63997;52.112;5.420;2023-03-01T11:35:37;2.22;;;1.30;;
75417;SDS011;63997;52.112;5.420;2023-03-01T11:40:47;3.17;;;1.70;;
75417;SDS011;63997;52.112;5.420;2023-03-01T11:43:35;3.22;;;1.52;;
75417;SDS011;63997;52.112;5.420;2023-03-01T11:46:28;3.28;;;2.13;;
75417;SDS011;63997;52.112;5.420;2023-03-01T11:49:02;2.72;;;1.65;;
75417;SDS011;63997;52.112;5.420;2023-03-01T11:51:38;2.43;;;1.60;;
75417;SDS011;63997;52.112;5.420;2023-03-01T11:54:21;4.82;;;2.13;;
75417;SDS011;63997;52.112;5.420;2023-03-01T12:00:25;3.97;;;1.85;;
75417;SDS011;63997;52.112;5.420;2023-03-01T12:03:22;3.17;;;1.92;;
75417;SDS011;63997;52.112;5.420;2023-03-01T12:26:01;3.28;;;2.17;;
75417;SDS011;63997;52.112;5.420;2023-03-01T12:42:38;2.63;;;1.90;;
75417;SDS011;63997;52.112;5.420;2023-03-01T12:45:21;3.88;;;2.28;;
75417;SDS011;63997;52.112;5.420;2023-03-01T12:50:44;3.45;;;2.35;;
75417;SDS011;63997;52.112;5.420;2023-03-01T12:53:26;4.65;;;1.88;;
75417;SDS011;63997;52.112;5.420;2023-03-01T12:55:59;7.22;;;1.98;;
75417;SDS011;63997;52.112;5.420;2023-03-01T13:17:49;3.35;;;1.75;;
75417;SDS011;63997;52.112;5.420;2023-03-01T13:20:24;3.47;;;1.90;;
75417;SDS011;63997;52.112;5.420;2023-03-01T13:25:28;4.03;;;2.00;;
75417;SDS011;63997;52.112;5.420;2023-03-01T13:31:01;3.45;;;2.03;;
75417;SDS011;63997;52.112;5.420;2023-03-01T13:35:56;3.75;;;2.10;;
75417;SDS011;63997;52.112;5.420;2023-03-01T13:41:16;4.03;;;2.47;;
75417;SDS011;63997;52.112;5.420;2023-03-01T13:47:07;4.85;;;2.00;;
75417;SDS011;63997;52.112;5.420;2023-03-01T13:49:51;2.60;;;1.50;;
75417;SDS011;63997;52.112;5.420;2023-03-01T13:55:04;5.77;;;2.10;;
75417;SDS011;63997;52.112;5.420;2023-03-01T13:57:41;5.00;;;2.38;;
75417;SDS011;63997;52.112;5.420;2023-03-01T14:00:55;5.18;;;2.08;;
75417;SDS011;63997;52.112;5.420;2023-03-01T14:03:08;4.97;;;3.13;;
75417;SDS011;63997;52.112;5.420;2023-03-01T14:05:40;6.45;;;2.05;;
75417;SDS011;63997;52.112;5.420;2023-03-01T14:08:18;2.70;;;1.77;;
75417;SDS011;63997;52.112;5.420;2023-03-01T14:19:33;2.60;;;1.77;;
75417;SDS011;63997;52.112;5.420;2023-03-01T14:25:02;5.65;;;2.47;;
75417;SDS011;63997;52.112;5.420;2023-03-01T14:27:33;3.00;;;2.00;;
75417;SDS011;63997;52.112;5.420;2023-03-01T14:33:26;3.03;;;2.28;;
75417;SDS011;63997;52.112;5.420;2023-03-01T14:38:49;3.33;;;2.28;;
75417;SDS011;63997;52.112;5.420;2023-03-01T14:41:23;3.22;;;1.98;;
75417;SDS011;63997;52.112;5.420;2023-03-01T14:44:35;3.25;;;2.72;;
75417;SDS011;63997;52.112;5.420;2023-03-01T14:46:45;3.63;;;2.38;;
75417;SDS011;63997;52.112;5.420;2023-03-01T14:49:17;3.80;;;2.33;;
75417;SDS011;63997;52.112;5.420;2023-03-01T14:51:50;3.35;;;2.50;;
75417;SDS011;63997;52.112;5.420;2023-03-01T14:54:21;4.63;;;2.58;;
75417;SDS011;63997;52.112;5.420;2023-03-01T14:56:52;4.78;;;2.10;;
75417;SDS011;63997;52.112;5.420;2023-03-01T14:59:25;4.38;;;2.08;;
75417;SDS011;63997;52.112;5.420;2023-03-01T15:01:53;4.53;;;2.10;;
75417;SDS011;63997;52.112;5.420;2023-03-01T15:04:22;7.28;;;2.20;;
75417;SDS011;63997;52.112;5.420;2023-03-01T15:06:51;4.57;;;2.15;;
75417;SDS011;63997;52.112;5.420;2023-03-01T15:09:18;4.60;;;2.60;;
75417;SDS011;63997;52.112;5.420;2023-03-01T15:11:45;3.33;;;2.40;;
75417;SDS011;63997;52.112;5.420;2023-03-01T15:17:28;2.95;;;2.08;;
75417;SDS011;63997;52.112;5.420;2023-03-01T15:19:58;5.20;;;2.30;;
75417;SDS011;63997;52.112;5.420;2023-03-01T15:22:25;4.15;;;2.10;;
75417;SDS011;63997;52.112;5.420;2023-03-01T15:24:53;3.05;;;2.25;;
75417;SDS011;63997;52.112;5.420;2023-03-01T15:27:20;4.20;;;2.13;;
75417;SDS011;63997;52.112;5.420;2023-03-01T15:29:49;5.32;;;2.63;;
75417;SDS011;63997;52.112;5.420;2023-03-01T15:32:35;3.28;;;2.15;;
75417;SDS011;63997;52.112;5.420;2023-03-01T15:38:00;7.00;;;2.50;;
75417;SDS011;63997;52.112;5.420;2023-03-01T15:40:28;3.03;;;2.03;;
75417;SDS011;63997;52.112;5.420;2023-03-01T15:42:59;3.63;;;2.33;;
75417;SDS011;63997;52.112;5.420;2023-03-01T15:45:28;4.40;;;2.30;;
75417;SDS011;63997;52.112;5.420;2023-03-01T15:48:13;2.90;;;1.63;;
75417;SDS011;63997;52.112;5.420;2023-03-01T15:50:43;6.97;;;2.80;;
75417;SDS011;63997;52.112;5.420;2023-03-01T15:53:12;4.73;;;2.30;;
75417;SDS011;63997;52.112;5.420;2023-03-01T15:55:40;3.00;;;1.70;;
75417;SDS011;63997;52.112;5.420;2023-03-01T15:58:14;4.70;;;2.35;;
75417;SDS011;63997;52.112;5.420;2023-03-01T16:00:43;4.22;;;2.58;;
75417;SDS011;63997;52.112;5.420;2023-03-01T16:03:25;4.78;;;3.63;;
75417;SDS011;63997;52.112;5.420;2023-03-01T16:05:52;6.43;;;2.40;;
75417;SDS011;63997;52.112;5.420;2023-03-01T16:08:19;3.55;;;2.17;;
75417;SDS011;63997;52.112;5.420;2023-03-01T16:10:46;3.10;;;2.60;;
75417;SDS011;63997;52.112;5.420;2023-03-01T16:13:14;3.75;;;2.33;;
75417;SDS011;63997;52.112;5.420;2023-03-01T16:15:40;6.07;;;2.70;;
75417;SDS011;63997;52.112;5.420;2023-03-01T16:18:07;3.33;;;2.57;;
75417;SDS011;63997;52.112;5.420;2023-03-01T16:20:36;3.67;;;2.40;;
75417;SDS011;63997;52.112;5.420;2023-03-01T16:23:04;3.67;;;2.50;;
75417;SDS011;63997;52.112;5.420;2023-03-01T16:25:32;5.20;;;2.58;;
75417;SDS011;63997;52.112;5.420;2023-03-01T16:27:59;4.38;;;2.58;;
75417;SDS011;63997;52.112;5.420;2023-03-01T16:30:30;3.50;;;2.43;;
75417;SDS011;63997;52.112;5.420;2023-03-01T16:32:56;3.00;;;2.15;;
75417;SDS011;63997;52.112;5.420;2023-03-01T16:35:23;4.63;;;2.55;;
75417;SDS011;63997;52.112;5.420;2023-03-01T16:37:49;4.32;;;2.28;;
75417;SDS011;63997;52.112;5.420;2023-03-01T16:40:19;4.57;;;3.38;;
75417;SDS011;63997;52.112;5.420;2023-03-01T16:42:47;7.17;;;2.83;;
75417;SDS011;63997;52.112;5.420;2023-03-01T16:45:14;4.70;;;2.75;;
75417;SDS011;63997;52.112;5.420;2023-03-01T16:47:49;3.92;;;3.15;;
75417;SDS011;63997;52.112;5.420;2023-03-01T16:50:18;3.63;;;2.60;;
75417;SDS011;63997;52.112;5.420;2023-03-01T16:52:44;6.10;;;2.63;;
75417;SDS011;63997;52.112;5.420;2023-03-01T16:55:11;3.33;;;2.70;;
75417;SDS011;63997;52.112;5.420;2023-03-01T16:57:37;5.50;;;2.30;;
75417;SDS011;63997;52.112;5.420;2023-03-01T17:00:05;3.95;;;2.75;;
75417;SDS011;63997;52.112;5.420;2023-03-01T17:02:34;3.80;;;2.08;;
75417;SDS011;63997;52.112;5.420;2023-03-01T17:05:01;3.10;;;2.22;;
75417;SDS011;63997;52.112;5.420;2023-03-01T17:07:29;3.87;;;2.50;;
75417;SDS011;63997;52.112;5.420;2023-03-01T17:10:02;4.05;;;2.33;;